Time;durP1;ratioP1;P1;durP2;ratioP2;P2;SDS_P1;SDS_P2;PMS_P1;PMS_P2;Temp;Humidity;BMP_temperature;BMP_pressure;BME280_temperature;BME280_humidity;BME280_pressure;Samples;Min_cycle;Max_cycle;Signal;HPM_P1;HPM_P2
2021/08/22 00:00:18;;;;;;;8.93;3.00;;;17.80;84.90;;;;;;5093458;28;20122;-88
2021/08/22 00:02:44;;;;;;;7.72;2.78;;;17.80;84.70;;;;;;5112260;28;20030;-88
2021/08/22 00:05:10;;;;;;;7.68;3.08;;;17.70;84.90;;;;;;5112098;28;20042;-87
2021/08/22 00:07:35;;;;;;;5.95;3.00;;;17.70;85.30;;;;;;5092678;28;20040;-88
2021/08/22 00:10:02;;;;;;;9.60;3.15;;;17.60;84.70;;;;;;5112613;28;20032;-87
2021/08/22 00:12:28;;;;;;;6.78;3.15;;;17.60;85.20;;;;;;5112229;28;20020;-87
2021/08/22 00:14:53;;;;;;;7.72;3.10;;;17.60;85.10;;;;;;5094221;28;20027;-88
2021/08/22 00:17:19;;;;;;;7.78;3.08;;;17.50;85.10;;;;;;5094214;28;20023;-87
2021/08/22 00:19:46;;;;;;;6.82;2.92;;;17.50;84.90;;;;;;5093782;28;20128;-87
2021/08/22 00:22:11;;;;;;;8.02;3.15;;;17.50;85.10;;;;;;5092925;28;20034;-87
2021/08/22 00:24:37;;;;;;;6.95;3.30;;;17.50;85.00;;;;;;5093153;28;20032;-87
2021/08/22 00:27:04;;;;;;;6.50;2.95;;;17.50;84.90;;;;;;5093260;28;20020;-86
2021/08/22 00:29:29;;;;;;;7.85;2.90;;;17.40;84.70;;;;;;5093105;28;20055;-87
2021/08/22 00:31:55;;;;;;;7.65;3.38;;;17.40;84.80;;;;;;5112423;28;20125;-87
2021/08/22 00:34:21;;;;;;;10.15;3.03;;;17.40;84.70;;;;;;5111487;28;20503;-87
2021/08/22 00:36:46;;;;;;;9.70;2.92;;;17.30;84.70;;;;;;5093459;28;20396;-87
2021/08/22 00:39:13;;;;;;;8.20;2.90;;;17.30;85.10;;;;;;5095445;28;20024;-87
2021/08/22 00:41:39;;;;;;;7.45;3.13;;;17.30;85.20;;;;;;5093667;28;20032;-88
2021/08/22 00:44:05;;;;;;;7.95;3.22;;;17.30;84.80;;;;;;5093760;28;20039;-87
2021/08/22 00:46:32;;;;;;;9.48;3.35;;;17.20;85.00;;;;;;5093202;28;20027;-88
2021/08/22 00:48:58;;;;;;;7.00;3.00;;;17.20;85.10;;;;;;5096570;28;20027;-88
2021/08/22 00:51:23;;;;;;;5.38;2.53;;;17.20;84.80;;;;;;5096667;28;20424;-87
2021/08/22 00:53:49;;;;;;;7.32;3.08;;;17.10;85.10;;;;;;5097084;28;20032;-88
2021/08/22 00:56:16;;;;;;;6.07;2.58;;;17.10;85.00;;;;;;5097489;28;20067;-87
2021/08/22 00:58:45;;;;;;;6.70;3.17;;;17.10;85.00;;;;;;5097106;28;20488;-87
2021/08/22 01:01:16;;;;;;;5.82;2.60;;;17.10;85.10;;;;;;5096464;28;20033;-88
2021/08/22 01:03:48;;;;;;;5.28;2.92;;;17.10;85.00;;;;;;5096254;28;20026;-87
2021/08/22 01:06:16;;;;;;;5.50;2.72;;;17.10;84.90;;;;;;5096633;28;20111;-87
2021/08/22 01:08:47;;;;;;;5.90;2.90;;;17.10;85.20;;;;;;5115335;28;20031;-87
2021/08/22 01:11:20;;;;;;;7.35;2.97;;;17.10;85.20;;;;;;5111574;28;20059;-87
2021/08/22 01:14:00;;;;;;;5.65;2.78;;;17.00;85.10;;;;;;5096966;28;20073;-86
2021/08/22 01:16:32;;;;;;;5.32;2.78;;;17.00;85.00;;;;;;5096461;28;20519;-88
2021/08/22 01:19:00;;;;;;;6.38;3.03;;;17.00;85.30;;;;;;5098896;28;20055;-87
2021/08/22 01:21:26;;;;;;;8.02;3.08;;;17.00;85.10;;;;;;5114836;28;20015;-87
2021/08/22 01:23:56;;;;;;;5.95;3.10;;;17.00;85.00;;;;;;5114572;28;20028;-87
2021/08/22 01:26:26;;;;;;;6.18;3.00;;;16.90;85.00;;;;;;5118442;28;20540;-88
2021/08/22 01:28:52;;;;;;;5.32;2.90;;;16.90;85.10;;;;;;5096856;28;20168;-87
2021/08/22 01:31:22;;;;;;;8.05;3.33;;;16.90;85.20;;;;;;5096380;28;20035;-87
2021/08/22 01:33:49;;;;;;;7.97;2.72;;;16.90;85.40;;;;;;5096166;28;20052;-88
2021/08/22 01:36:17;;;;;;;6.28;2.85;;;16.80;85.20;;;;;;5114984;28;20065;-87
2021/08/22 01:38:43;;;;;;;5.10;2.72;;;16.80;85.50;;;;;;5098393;28;20046;-87
2021/08/22 01:41:09;;;;;;;6.85;2.50;;;16.80;85.30;;;;;;5114858;28;20016;-87
2021/08/22 01:43:36;;;;;;;5.57;2.83;;;16.80;85.20;;;;;;5114668;28;20034;-88
2021/08/22 01:46:02;;;;;;;5.85;2.80;;;16.70;85.50;;;;;;5095468;28;20047;-88
2021/08/22 01:48:28;;;;;;;6.18;2.63;;;16.70;85.40;;;;;;5095591;28;20019;-87
2021/08/22 01:50:58;;;;;;;6.88;2.90;;;16.60;85.80;;;;;;5095676;28;20027;-87
2021/08/22 01:53:25;;;;;;;5.65;2.80;;;16.60;85.80;;;;;;5114354;28;20020;-88
2021/08/22 01:55:52;;;;;;;6.38;2.70;;;16.50;85.90;;;;;;5114284;28;20051;-87
2021/08/22 01:58:17;;;;;;;5.55;2.90;;;16.50;85.90;;;;;;5095528;28;20024;-87
2021/08/22 02:00:43;;;;;;;6.25;2.63;;;16.50;86.00;;;;;;5095722;28;20515;-87
2021/08/22 02:03:15;;;;;;;6.63;2.80;;;16.50;86.20;;;;;;5095391;28;20058;-88
2021/08/22 02:05:42;;;;;;;6.03;2.70;;;16.40;86.20;;;;;;5095569;28;20054;-88
2021/08/22 02:08:14;;;;;;;6.20;2.72;;;16.40;86.30;;;;;;5096390;28;20118;-87
2021/08/22 02:10:47;;;;;;;7.20;2.72;;;16.50;86.30;;;;;;5094836;28;20081;-87
2021/08/22 02:13:15;;;;;;;6.78;2.75;;;16.50;86.10;;;;;;5095404;28;20032;-87
2021/08/22 02:15:42;;;;;;;6.47;2.90;;;16.40;86.10;;;;;;5094721;28;20035;-87
2021/08/22 02:18:12;;;;;;;7.07;2.70;;;16.40;86.20;;;;;;5113734;28;20073;-87
2021/08/22 02:20:40;;;;;;;7.68;2.65;;;16.40;86.40;;;;;;5095672;28;20403;-87
2021/08/22 02:23:08;;;;;;;7.90;2.70;;;16.30;86.50;;;;;;5095889;28;20023;-86
2021/08/22 02:25:34;;;;;;;6.63;2.80;;;16.40;86.40;;;;;;5095240;28;20027;-88
2021/08/22 02:28:01;;;;;;;9.00;3.28;;;16.40;86.30;;;;;;5113255;28;20027;-87
2021/08/22 02:30:31;;;;;;;4.47;2.42;;;16.40;86.30;;;;;;5095171;28;20103;-87
2021/08/22 02:32:56;;;;;;;7.40;2.83;;;16.30;86.30;;;;;;5113815;28;20035;-87
2021/08/22 02:35:22;;;;;;;5.30;3.22;;;16.30;86.50;;;;;;5113684;28;20019;-88
2021/08/22 02:37:48;;;;;;;6.45;2.97;;;16.20;86.20;;;;;;5114122;28;20036;-88
2021/08/22 02:40:14;;;;;;;5.45;2.70;;;16.20;86.70;;;;;;5103420;28;20027;-87
2021/08/22 02:42:40;;;;;;;6.30;2.80;;;16.10;87.60;;;;;;5101929;28;20019;-87
2021/08/22 02:45:07;;;;;;;4.97;2.50;;;16.10;86.90;;;;;;5119579;28;20035;-87
2021/08/22 02:47:32;;;;;;;7.00;2.83;;;16.10;86.90;;;;;;5101771;28;20054;-87
2021/08/22 02:49:58;;;;;;;7.40;2.55;;;16.10;86.90;;;;;;5135184;27;20031;-87
2021/08/22 02:52:24;;;;;;;9.00;2.95;;;16.10;86.70;;;;;;5113425;28;20054;-88
2021/08/22 02:54:50;;;;;;;5.35;2.83;;;16.00;86.70;;;;;;5094528;28;20027;-87
2021/08/22 02:57:17;;;;;;;5.18;3.17;;;16.00;86.80;;;;;;5112931;28;20034;-87
2021/08/22 02:59:43;;;;;;;5.13;2.97;;;16.10;87.30;;;;;;5112074;27;20034;-87
2021/08/22 03:02:09;;;;;;;5.95;2.72;;;16.00;86.80;;;;;;5095375;28;20027;-88
2021/08/22 03:04:34;;;;;;;8.60;3.72;;;16.00;87.40;;;;;;5094214;28;20042;-87
2021/08/22 03:07:00;;;;;;;5.70;2.92;;;16.00;87.30;;;;;;5094472;28;20104;-88
2021/08/22 03:09:26;;;;;;;6.78;3.03;;;16.00;87.40;;;;;;5112899;28;20042;-87
2021/08/22 03:11:51;;;;;;;6.05;3.65;;;15.90;87.30;;;;;;5111814;28;20392;-87
2021/08/22 03:14:17;;;;;;;5.80;3.33;;;15.90;87.10;;;;;;5094371;28;20015;-87
2021/08/22 03:16:42;;;;;;;8.02;3.63;;;15.90;87.40;;;;;;5094858;28;20488;-87
2021/08/22 03:19:08;;;;;;;7.07;3.33;;;15.90;87.30;;;;;;5112314;28;20051;-87
2021/08/22 03:21:34;;;;;;;7.95;3.60;;;15.90;88.20;;;;;;5094405;28;20027;-87
2021/08/22 03:24:00;;;;;;;6.53;3.28;;;15.90;87.20;;;;;;5112409;28;20024;-87
2021/08/22 03:26:25;;;;;;;8.05;3.65;;;15.80;87.50;;;;;;5094602;28;20122;-87
2021/08/22 03:28:51;;;;;;;6.95;3.50;;;15.80;87.40;;;;;;5112564;28;20425;-86
2021/08/22 03:31:17;;;;;;;5.35;2.90;;;15.80;87.50;;;;;;5112491;28;20531;-86
2021/08/22 03:33:43;;;;;;;8.13;3.42;;;15.80;87.60;;;;;;5112653;28;20028;-87
2021/08/22 03:36:09;;;;;;;6.30;3.28;;;15.80;87.80;;;;;;5112702;28;20031;-87
2021/08/22 03:38:35;;;;;;;6.00;2.97;;;15.80;87.30;;;;;;5096312;27;20028;-87
2021/08/22 03:41:00;;;;;;;5.43;3.05;;;15.80;87.60;;;;;;5113359;28;20023;-87
2021/08/22 03:43:26;;;;;;;5.45;3.15;;;15.80;87.40;;;;;;5112040;28;20031;-87
2021/08/22 03:45:52;;;;;;;7.78;3.17;;;15.80;87.30;;;;;;5093391;28;20529;-87
2021/08/22 03:48:18;;;;;;;7.32;2.95;;;15.80;87.60;;;;;;5094121;28;20112;-87
2021/08/22 03:50:43;;;;;;;5.85;2.45;;;15.80;87.80;;;;;;5094177;28;20024;-87
2021/08/22 03:53:09;;;;;;;5.00;2.40;;;15.80;87.60;;;;;;5112954;28;20028;-87
2021/08/22 03:55:34;;;;;;;6.70;2.78;;;15.80;87.40;;;;;;5112444;28;20479;-87
2021/08/22 03:58:00;;;;;;;6.38;2.40;;;15.80;87.70;;;;;;5112407;28;20038;-87
2021/08/22 04:00:26;;;;;;;3.85;2.22;;;15.70;87.80;;;;;;5118878;28;20057;-88
2021/08/22 04:02:51;;;;;;;8.23;2.80;;;15.80;87.70;;;;;;5097086;28;20023;-87
2021/08/22 04:05:17;;;;;;;4.60;2.20;;;15.80;87.50;;;;;;5115976;28;20152;-87
2021/08/22 04:07:49;;;;;;;8.52;2.55;;;15.80;87.70;;;;;;5118067;28;20024;-88
2021/08/22 04:10:16;;;;;;;3.50;1.85;;;15.80;88.20;;;;;;5100586;28;20168;-87
2021/08/22 04:12:41;;;;;;;4.97;2.28;;;15.70;87.50;;;;;;5100121;28;20032;-87
2021/08/22 04:15:08;;;;;;;6.35;2.58;;;15.70;87.60;;;;;;5100783;28;20020;-88
2021/08/22 04:17:33;;;;;;;4.93;2.25;;;15.70;87.90;;;;;;5099880;28;20024;-86
2021/08/22 04:19:59;;;;;;;7.47;2.67;;;15.70;87.80;;;;;;5101103;28;20085;-87
2021/08/22 04:22:25;;;;;;;4.30;2.40;;;15.70;88.70;;;;;;5107541;28;20020;-87
2021/08/22 04:24:50;;;;;;;5.85;2.28;;;15.70;87.80;;;;;;5104469;28;20043;-87
2021/08/22 04:27:16;;;;;;;6.68;2.65;;;15.70;87.70;;;;;;5122678;28;20020;-87
2021/08/22 04:29:42;;;;;;;7.30;2.90;;;15.70;87.90;;;;;;5106281;28;20395;-88
2021/08/22 04:32:08;;;;;;;6.47;2.47;;;15.60;87.90;;;;;;5104960;28;20471;-87
2021/08/22 04:34:34;;;;;;;4.80;2.53;;;15.60;88.00;;;;;;5104020;28;20110;-87
2021/08/22 04:37:00;;;;;;;5.90;2.50;;;15.60;87.70;;;;;;5123284;28;20039;-87
2021/08/22 04:39:25;;;;;;;5.30;2.65;;;15.60;87.90;;;;;;5106048;28;20031;-87
2021/08/22 04:41:51;;;;;;;4.93;2.40;;;15.60;88.10;;;;;;5103395;28;20115;-86
2021/08/22 04:44:17;;;;;;;6.55;2.40;;;15.60;88.00;;;;;;5121932;28;20044;-87
2021/08/22 04:46:43;;;;;;;6.68;2.40;;;15.60;88.30;;;;;;5126040;27;20065;-86
2021/08/22 04:49:09;;;;;;;5.25;2.40;;;15.60;89.20;;;;;;5099312;28;20028;-89
2021/08/22 04:51:35;;;;;;;7.45;2.80;;;15.60;88.20;;;;;;5104337;28;20024;-87
2021/08/22 04:54:01;;;;;;;7.15;2.55;;;15.60;88.00;;;;;;5122453;28;20032;-87
2021/08/22 04:56:27;;;;;;;4.43;2.20;;;15.60;88.00;;;;;;5121594;28;20039;-87
2021/08/22 04:58:52;;;;;;;4.63;2.20;;;15.60;88.10;;;;;;5138355;27;20020;-87
2021/08/22 05:01:18;;;;;;;6.10;2.50;;;15.50;87.90;;;;;;5121389;28;20039;-87
2021/08/22 05:03:44;;;;;;;5.10;2.40;;;15.50;87.80;;;;;;5103275;28;20033;-87
2021/08/22 05:06:10;;;;;;;7.45;2.72;;;15.50;88.00;;;;;;5121415;28;20039;-87
2021/08/22 05:08:36;;;;;;;6.68;2.50;;;15.50;88.40;;;;;;5121791;28;20027;-88
2021/08/22 05:11:02;;;;;;;3.92;2.33;;;15.60;88.10;;;;;;5121517;28;20027;-88
2021/08/22 05:13:28;;;;;;;6.50;2.55;;;15.60;88.10;;;;;;5120915;28;20038;-87
2021/08/22 05:15:54;;;;;;;6.07;2.40;;;15.60;88.30;;;;;;5103351;28;20031;-86
2021/08/22 05:18:24;;;;;;;4.68;2.30;;;15.60;88.00;;;;;;5102024;28;20070;-87
2021/08/22 05:20:51;;;;;;;5.75;2.50;;;15.60;88.00;;;;;;5102404;28;20039;-86
2021/08/22 05:23:17;;;;;;;4.18;2.55;;;15.50;87.80;;;;;;5120927;28;20015;-87
2021/08/22 05:25:43;;;;;;;5.25;2.53;;;15.50;88.10;;;;;;5120505;28;20042;-87
2021/08/22 05:28:09;;;;;;;5.75;2.80;;;15.60;89.20;;;;;;5102573;28;20023;-87
2021/08/22 05:30:35;;;;;;;5.07;2.50;;;15.50;88.00;;;;;;5101980;28;20027;-86
2021/08/22 05:33:01;;;;;;;5.78;2.22;;;15.50;88.10;;;;;;5120127;28;20020;-87
2021/08/22 05:35:27;;;;;;;5.68;2.53;;;15.50;88.30;;;;;;5120697;28;20487;-87
2021/08/22 05:37:52;;;;;;;5.55;2.28;;;15.50;88.40;;;;;;5121719;28;20030;-90
2021/08/22 05:40:18;;;;;;;6.13;2.63;;;15.50;88.20;;;;;;5122469;27;20036;-87
2021/08/22 05:42:44;;;;;;;3.92;2.05;;;15.50;88.40;;;;;;5120368;28;20023;-87
2021/08/22 05:45:10;;;;;;;5.10;2.67;;;15.50;88.50;;;;;;5120063;28;20039;-87
2021/08/22 05:47:35;;;;;;;4.95;2.28;;;15.50;88.50;;;;;;5102692;28;20038;-87
2021/08/22 05:50:04;;;;;;;4.38;2.17;;;15.50;88.50;;;;;;5102549;28;20019;-87
2021/08/22 05:52:33;;;;;;;4.53;2.60;;;15.50;88.30;;;;;;5120746;28;20080;-87
2021/08/22 05:54:59;;;;;;;6.00;2.40;;;15.60;88.30;;;;;;5120183;28;20024;-87
2021/08/22 05:57:25;;;;;;;5.80;1.95;;;15.60;88.40;;;;;;5101943;28;20016;-87
2021/08/22 05:59:50;;;;;;;7.90;2.50;;;15.60;88.40;;;;;;5120826;28;20027;-88
2021/08/22 06:02:16;;;;;;;5.78;2.05;;;15.60;88.60;;;;;;5102669;28;20027;-87
2021/08/22 06:04:41;;;;;;;4.60;2.15;;;15.60;88.40;;;;;;5120611;28;20035;-86
2021/08/22 06:07:07;;;;;;;5.07;2.30;;;15.60;88.40;;;;;;5120927;28;20054;-88
2021/08/22 06:09:33;;;;;;;5.50;2.03;;;15.60;88.30;;;;;;5101186;28;20056;-87
2021/08/22 06:12:00;;;;;;;5.43;2.25;;;15.70;88.50;;;;;;5102175;28;20059;-86
2021/08/22 06:14:25;;;;;;;4.03;1.88;;;15.70;88.60;;;;;;5120561;28;20015;-88
2021/08/22 06:16:51;;;;;;;4.82;1.98;;;15.70;88.50;;;;;;5102784;28;20027;-87
2021/08/22 06:19:17;;;;;;;3.35;2.30;;;15.80;88.90;;;;;;5101631;28;20052;-88
2021/08/22 06:21:42;;;;;;;4.88;2.20;;;15.80;88.70;;;;;;5119638;28;20031;-87
2021/08/22 06:24:08;;;;;;;5.22;1.90;;;15.90;88.60;;;;;;5101257;28;20024;-87
2021/08/22 06:26:34;;;;;;;4.55;2.33;;;16.00;88.70;;;;;;5136022;27;20032;-87
2021/08/22 06:28:59;;;;;;;5.57;2.10;;;16.10;88.40;;;;;;5120121;28;20102;-87
2021/08/22 06:31:25;;;;;;;4.22;2.08;;;16.10;88.20;;;;;;5101643;28;20050;-88
2021/08/22 06:33:50;;;;;;;4.95;2.20;;;16.20;88.30;;;;;;5120537;28;20027;-87
2021/08/22 06:36:16;;;;;;;3.05;1.85;;;16.10;87.60;;;;;;5101628;28;20024;-88
2021/08/22 06:38:42;;;;;;;3.17;1.92;;;16.10;87.70;;;;;;5103131;28;20059;-87
2021/08/22 06:41:07;;;;;;;5.10;1.90;;;16.20;87.80;;;;;;5100759;28;20024;-88
2021/08/22 06:43:33;;;;;;;4.35;1.88;;;16.20;87.80;;;;;;5117542;28;20499;-86
2021/08/22 06:45:59;;;;;;;3.40;1.70;;;16.30;87.50;;;;;;5100695;28;20068;-88
2021/08/22 06:48:25;;;;;;;4.25;2.00;;;16.30;87.90;;;;;;5100848;28;20023;-87
2021/08/22 06:50:51;;;;;;;3.03;1.83;;;16.30;87.70;;;;;;5099812;28;20027;-88
2021/08/22 06:53:17;;;;;;;3.22;1.85;;;16.40;87.50;;;;;;5100771;28;20031;-88
2021/08/22 06:55:45;;;;;;;5.70;2.00;;;16.50;87.30;;;;;;5100973;28;20024;-88
2021/08/22 06:58:10;;;;;;;3.83;1.88;;;16.50;87.20;;;;;;5097630;28;20038;-87
2021/08/22 07:00:36;;;;;;;4.18;1.77;;;16.50;87.30;;;;;;5100329;28;20503;-87
2021/08/22 07:03:02;;;;;;;3.53;1.42;;;16.50;86.80;;;;;;5101057;28;20020;-88
2021/08/22 07:05:27;;;;;;;2.40;1.65;;;16.40;87.60;;;;;;5118178;28;20472;-87
2021/08/22 07:07:53;;;;;;;4.32;1.80;;;16.40;86.70;;;;;;5101455;28;20020;-87
2021/08/22 07:10:19;;;;;;;2.95;1.63;;;16.30;86.80;;;;;;5119164;28;20027;-87
2021/08/22 07:12:44;;;;;;;6.97;2.53;;;16.30;87.90;;;;;;5097942;28;20099;-87
2021/08/22 07:15:13;;;;;;;2.60;1.73;;;16.40;87.20;;;;;;5100470;28;20083;-87
2021/08/22 07:17:39;;;;;;;3.33;1.58;;;16.40;87.00;;;;;;5118935;28;20073;-88
2021/08/22 07:20:06;;;;;;;3.88;1.85;;;16.40;87.00;;;;;;5100990;28;20044;-87
2021/08/22 07:22:31;;;;;;;2.55;1.60;;;16.50;87.60;;;;;;5119333;28;20089;-87
2021/08/22 07:24:59;;;;;;;3.50;1.40;;;16.60;87.70;;;;;;5099958;28;20488;-86
2021/08/22 07:27:25;;;;;;;5.05;1.80;;;16.70;87.70;;;;;;5118687;28;20038;-87
2021/08/22 07:29:51;;;;;;;2.97;1.63;;;16.90;87.00;;;;;;5118740;28;20480;-86
2021/08/22 07:32:17;;;;;;;3.92;1.70;;;16.90;86.90;;;;;;5100082;28;20030;-88
2021/08/22 07:34:43;;;;;;;4.28;1.50;;;17.10;87.30;;;;;;5122149;27;20043;-87
2021/08/22 07:37:09;;;;;;;3.58;1.52;;;17.10;86.70;;;;;;5095994;28;20054;-87
2021/08/22 07:39:35;;;;;;;3.10;1.50;;;17.20;86.40;;;;;;5099439;28;20020;-87
2021/08/22 07:42:01;;;;;;;4.05;1.63;;;17.30;86.70;;;;;;5098923;28;20114;-87
2021/08/22 07:44:27;;;;;;;5.20;1.60;;;17.40;86.30;;;;;;5118220;28;20032;-87
2021/08/22 07:46:53;;;;;;;4.20;1.40;;;17.40;85.60;;;;;;5118797;28;20024;-87
2021/08/22 07:49:19;;;;;;;3.20;1.60;;;17.40;86.00;;;;;;5118767;28;20031;-88
2021/08/22 07:51:46;;;;;;;3.88;1.55;;;17.40;85.60;;;;;;5099507;28;20043;-87
2021/08/22 07:54:13;;;;;;;4.80;1.60;;;17.40;85.80;;;;;;5098261;28;20080;-88
2021/08/22 07:56:40;;;;;;;4.75;1.65;;;17.50;86.10;;;;;;5099359;28;20026;-87
2021/08/22 07:59:09;;;;;;;2.97;1.30;;;17.50;85.70;;;;;;5122593;28;20024;-87
2021/08/22 08:01:35;;;;;;;3.58;1.48;;;17.60;85.20;;;;;;5120928;28;20115;-87
2021/08/22 08:04:01;;;;;;;4.32;1.42;;;17.60;85.20;;;;;;5118811;28;20024;-87
2021/08/22 08:06:27;;;;;;;3.75;1.45;;;17.60;84.90;;;;;;5100139;28;20446;-87
2021/08/22 08:08:53;;;;;;;3.47;1.50;;;17.60;85.10;;;;;;5099976;28;20026;-87
2021/08/22 08:11:18;;;;;;;2.63;1.40;;;17.70;85.70;;;;;;5100406;28;20503;-87
2021/08/22 08:13:44;;;;;;;3.33;1.48;;;17.80;84.70;;;;;;5098256;28;20030;-87
2021/08/22 08:16:10;;;;;;;5.03;1.77;;;17.70;84.60;;;;;;5096948;28;20111;-87
2021/08/22 08:18:35;;;;;;;5.20;1.90;;;17.70;85.10;;;;;;5115117;28;20155;-87
2021/08/22 08:21:03;;;;;;;1.88;1.50;;;17.90;85.80;;;;;;5116164;28;20533;-88
2021/08/22 08:23:29;;;;;;;4.43;1.40;;;18.00;85.00;;;;;;5098753;28;20032;-87
2021/08/22 08:25:55;;;;;;;2.75;1.50;;;17.90;84.30;;;;;;5115875;28;20035;-87
2021/08/22 08:28:20;;;;;;;2.63;1.42;;;18.00;84.50;;;;;;5120381;28;20124;-88
2021/08/22 08:30:46;;;;;;;5.18;1.70;;;18.00;84.60;;;;;;5116281;28;20036;-86
2021/08/22 08:33:12;;;;;;;3.13;1.70;;;18.10;84.70;;;;;;5097103;28;20019;-87
2021/08/22 08:35:37;;;;;;;2.45;1.35;;;18.30;84.80;;;;;;5115580;28;20040;-87
2021/08/22 08:38:03;;;;;;;5.18;1.50;;;18.30;84.00;;;;;;5116197;28;20026;-87
2021/08/22 08:40:29;;;;;;;2.47;1.50;;;18.30;84.00;;;;;;5097080;28;20028;-87
2021/08/22 08:42:56;;;;;;;2.90;1.10;;;18.40;83.70;;;;;;5115295;28;20027;-88
2021/08/22 08:45:43;;;;;;;4.70;1.50;;;18.30;83.60;;;;;;5097163;28;20032;-87
2021/08/22 08:48:09;;;;;;;4.90;1.70;;;18.30;83.70;;;;;;5009910;28;20141;-87
2021/08/22 08:50:44;;;;;;;2.33;1.30;;;18.40;83.90;;;;;;5013079;28;20060;-88
2021/08/22 08:53:13;;;;;;;2.53;1.40;;;18.40;83.90;;;;;;5033072;28;20037;-88
2021/08/22 08:55:51;;;;;;;4.90;1.58;;;18.40;83.70;;;;;;5012051;28;20033;-88
2021/08/22 08:58:16;;;;;;;4.00;1.80;;;18.50;83.50;;;;;;5023860;28;20060;-87
2021/08/22 09:00:43;;;;;;;2.70;1.50;;;18.50;83.10;;;;;;5007551;28;20064;-87
2021/08/22 09:03:14;;;;;;;3.38;1.48;;;18.60;83.10;;;;;;5011617;28;20029;-87
2021/08/22 09:05:39;;;;;;;3.28;1.40;;;18.60;82.70;;;;;;4996564;28;20050;-88
2021/08/22 09:08:17;;;;;;;2.42;1.30;;;18.60;82.90;;;;;;5016778;28;20057;-88
2021/08/22 09:11:16;;;;;;;2.97;1.27;;;18.70;83.50;;;;;;5024244;28;20049;-87
2021/08/22 09:14:05;;;;;;;3.03;1.40;;;18.70;83.10;;;;;;5028062;28;20037;-88
2021/08/22 09:16:49;;;;;;;3.25;1.40;;;18.80;82.80;;;;;;5014223;28;20045;-87
2021/08/22 09:19:52;;;;;;;2.75;1.60;;;18.80;82.60;;;;;;5003710;28;20136;-88
2021/08/22 09:22:55;;;;;;;3.95;1.48;;;18.80;82.20;;;;;;5023511;28;20136;-88
2021/08/22 09:25:35;;;;;;;2.10;1.20;;;18.80;82.90;;;;;;5051740;28;20051;-88
2021/08/22 09:28:38;;;;;;;2.97;1.42;;;18.90;82.00;;;;;;5096458;28;20024;-88
2021/08/22 09:31:41;;;;;;;2.37;1.30;;;18.90;82.60;;;;;;5095749;28;20395;-88
2021/08/22 09:34:34;;;;;;;2.15;1.23;;;18.90;82.10;;;;;;5096093;28;20503;-87
2021/08/22 09:37:06;;;;;;;;;;;19.10;82.10;;;;;;5096441;28;20023;-87
2021/08/22 09:40:09;;;;;;;2.13;1.08;;;19.20;82.40;;;;;;5130587;27;20003;-87
2021/08/22 09:43:06;;;;;;;4.00;1.30;;;19.30;81.90;;;;;;5094665;28;20135;-87
2021/08/22 09:45:53;;;;;;;3.08;1.30;;;19.50;81.70;;;;;;5114251;28;20038;-88
2021/08/22 09:48:56;;;;;;;5.30;1.33;;;19.60;80.40;;;;;;5096385;28;20020;-87
2021/08/22 09:51:59;;;;;;;2.55;0.80;;;19.70;80.40;;;;;;5096563;28;20024;-88
2021/08/22 09:55:02;;;;;;;2.53;0.90;;;19.70;79.30;;;;;;5114637;28;20020;-87
2021/08/22 09:58:05;;;;;;;3.53;1.13;;;19.70;76.70;;;;;;5096441;28;20027;-87
2021/08/22 10:00:55;;;;;;;2.70;0.98;;;19.80;79.40;;;;;;5094605;28;20434;-88
2021/08/22 10:03:23;;;;;;;2.38;1.35;;;19.90;78.80;;;;;;5093180;28;20039;-86
2021/08/22 10:06:20;;;;;;;2.78;1.00;;;19.80;77.70;;;;;;5094361;28;20108;-87
2021/08/22 10:08:57;;;;;;;1.88;1.00;;;19.80;77.80;;;;;;5112064;28;20032;-87
2021/08/22 10:11:48;;;;;;;2.53;1.05;;;19.80;78.30;;;;;;5122864;27;20023;-88
2021/08/22 10:14:14;;;;;;;2.88;1.20;;;19.90;77.80;;;;;;5112585;28;20084;-87
2021/08/22 10:16:40;;;;;;;2.92;1.42;;;20.00;76.90;;;;;;5094688;28;20484;-87
2021/08/22 10:19:09;;;;;;;3.15;1.15;;;20.10;76.30;;;;;;5112617;28;20447;-87
2021/08/22 10:21:36;;;;;;;1.88;0.90;;;20.10;76.20;;;;;;5094364;28;20127;-88
2021/08/22 10:24:23;;;;;;;1.67;1.02;;;20.00;76.00;;;;;;5094188;28;20054;-86
2021/08/22 10:26:57;;;;;;;2.65;1.00;;;20.20;76.10;;;;;;5111955;28;20023;-86
2021/08/22 10:29:34;;;;;;;2.40;1.10;;;20.30;77.10;;;;;;5094640;28;20712;-86
2021/08/22 10:32:01;;;;;;;3.00;0.82;;;20.30;76.00;;;;;;5094629;28;20055;-87
2021/08/22 10:34:37;;;;;;;1.40;0.80;;;20.30;74.90;;;;;;5094977;28;20118;-87
2021/08/22 10:37:29;;;;;;;2.65;1.00;;;20.40;75.00;;;;;;5094496;28;20022;-87
2021/08/22 10:39:56;;;;;;;2.47;0.90;;;20.40;75.80;;;;;;5112607;28;20136;-87
2021/08/22 10:42:24;;;;;;;1.92;0.82;;;20.30;73.80;;;;;;5093800;28;20027;-87
2021/08/22 10:44:50;;;;;;;3.03;1.17;;;20.30;73.70;;;;;;5112619;28;20114;-87
2021/08/22 10:47:19;;;;;;;1.77;0.90;;;20.50;74.90;;;;;;5094729;28;20022;-87
2021/08/22 10:49:53;;;;;;;2.58;1.00;;;20.60;75.40;;;;;;5090154;28;20038;-87
2021/08/22 10:52:24;;;;;;;2.35;0.90;;;20.60;73.90;;;;;;5094379;28;20521;-87
2021/08/22 10:55:15;;;;;;;1.98;0.90;;;20.60;74.30;;;;;;5094498;28;20036;-87
2021/08/22 10:57:49;;;;;;;2.05;0.90;;;20.40;73.90;;;;;;5091204;28;20027;-87
2021/08/22 11:00:39;;;;;;;2.83;0.80;;;20.30;73.60;;;;;;5093264;28;20111;-87
2021/08/22 11:03:17;;;;;;;2.53;1.05;;;20.40;74.50;;;;;;5111671;28;20022;-88
2021/08/22 11:05:43;;;;;;;2.30;0.80;;;20.40;75.10;;;;;;5094480;28;20055;-87
2021/08/22 11:08:24;;;;;;;3.50;0.90;;;20.60;73.70;;;;;;5112636;28;20380;-87
2021/08/22 11:11:01;;;;;;;2.42;0.77;;;20.70;72.40;;;;;;5116767;28;20024;-91
2021/08/22 11:13:29;;;;;;;2.05;0.90;;;20.80;72.50;;;;;;5112842;27;20050;-87
2021/08/22 11:15:55;;;;;;;1.98;0.80;;;20.80;72.70;;;;;;5119314;27;20020;-87
2021/08/22 11:18:21;;;;;;;2.85;1.70;;;20.90;71.90;;;;;;5094262;28;20024;-88
2021/08/22 11:20:47;;;;;;;1.90;0.90;;;21.00;72.40;;;;;;5094337;28;20039;-87
2021/08/22 11:23:17;;;;;;;1.67;0.82;;;21.10;71.20;;;;;;5095428;28;20023;-88
2021/08/22 11:25:45;;;;;;;1.83;0.73;;;21.20;71.00;;;;;;5094608;28;20046;-88
2021/08/22 11:28:15;;;;;;;3.05;1.42;;;21.30;72.00;;;;;;5092225;28;20038;-88
2021/08/22 11:30:42;;;;;;;2.15;0.75;;;21.50;71.90;;;;;;5094622;28;20040;-88
2021/08/22 11:33:09;;;;;;;1.83;0.90;;;21.40;70.80;;;;;;5112443;28;20511;-88
2021/08/22 11:35:39;;;;;;;2.80;1.08;;;21.20;69.20;;;;;;5094449;28;20138;-87
2021/08/22 11:38:05;;;;;;;1.60;0.90;;;21.00;70.10;;;;;;5094517;28;20432;-86
2021/08/22 11:40:34;;;;;;;2.47;0.88;;;21.00;70.80;;;;;;5093691;28;20062;-86
2021/08/22 11:43:03;;;;;;;1.40;0.80;;;21.00;71.30;;;;;;5090392;28;20030;-87
2021/08/22 11:45:35;;;;;;;2.50;0.80;;;21.10;70.90;;;;;;5093899;28;20055;-87
2021/08/22 11:48:03;;;;;;;1.50;0.70;;;21.10;70.20;;;;;;5093538;28;20119;-88
2021/08/22 11:50:30;;;;;;;3.40;0.80;;;21.10;70.10;;;;;;5094292;28;20023;-86
2021/08/22 11:52:58;;;;;;;2.13;0.80;;;21.10;70.60;;;;;;5092176;28;20028;-86
2021/08/22 11:55:31;;;;;;;1.88;0.70;;;21.20;70.20;;;;;;5093430;28;20020;-87
2021/08/22 11:58:10;;;;;;;;;;;21.30;70.90;;;;;;5112150;28;20078;-87
2021/08/22 12:00:36;;;;;;;1.60;0.70;;;21.60;70.50;;;;;;5112186;28;19908;-87
2021/08/22 12:03:03;;;;;;;1.75;0.70;;;21.70;68.80;;;;;;5093603;28;20020;-87
2021/08/22 12:05:30;;;;;;;1.45;0.77;;;21.60;67.30;;;;;;5112312;28;20043;-87
2021/08/22 12:08:07;;;;;;;1.83;0.90;;;21.60;67.50;;;;;;5074374;28;20472;-87
2021/08/22 12:10:35;;;;;;;5.65;2.88;;;21.50;68.20;;;;;;5093102;28;20034;-87
2021/08/22 12:13:02;;;;;;;2.85;0.82;;;21.50;67.60;;;;;;5112199;28;20073;-87
2021/08/22 12:15:34;;;;;;;4.38;1.67;;;21.40;67.50;;;;;;5093668;28;20067;-87
2021/08/22 12:18:37;;;;;;;3.55;1.50;;;21.60;68.80;;;;;;5093745;28;20480;-86
2021/08/22 12:21:14;;;;;;;9.60;5.20;;;21.60;69.70;;;;;;5079639;28;20054;-87
2021/08/22 12:23:41;;;;;;;3.45;1.35;;;21.60;68.80;;;;;;5128975;27;20027;-89
2021/08/22 12:26:26;;;;;;;2.28;1.10;;;21.70;67.00;;;;;;5112022;28;20048;-87
2021/08/22 12:28:57;;;;;;;2.42;1.30;;;21.80;68.10;;;;;;5111836;28;20081;-87
2021/08/22 12:31:34;;;;;;;2.15;0.90;;;21.70;67.80;;;;;;5117398;28;20039;-87
2021/08/22 12:34:06;;;;;;;1.75;0.90;;;21.80;67.70;;;;;;5096187;28;20028;-86
2021/08/22 12:36:37;;;;;;;2.07;0.77;;;21.80;67.50;;;;;;5093536;28;20073;-87
2021/08/22 12:39:11;;;;;;;2.20;0.80;;;21.80;69.00;;;;;;5092986;28;20323;-87
2021/08/22 12:41:48;;;;;;;2.15;0.80;;;21.90;66.10;;;;;;5112473;28;20043;-87
2021/08/22 12:44:18;;;;;;;2.38;1.20;;;21.90;67.90;;;;;;5097066;28;20015;-87
2021/08/22 12:46:51;;;;;;;2.83;1.08;;;21.90;67.00;;;;;;5114437;28;20039;-88
2021/08/22 12:49:17;;;;;;;3.58;1.00;;;22.00;66.50;;;;;;5096707;28;20027;-87
2021/08/22 12:51:50;;;;;;;2.58;0.95;;;22.00;66.90;;;;;;5096607;28;20430;-87
2021/08/22 12:54:16;;;;;;;;;;;21.90;66.90;;;;;;5096639;28;20024;-87
2021/08/22 12:56:41;;;;;;;1.42;0.70;;;21.80;67.80;;;;;;5096797;28;19908;-87
2021/08/22 12:59:07;;;;;;;2.17;0.70;;;21.60;66.20;;;;;;5097356;28;20043;-87